| time (UTC) | temp C | wind direction | speed KPH | gust KPH | rain 1hr cm | rain 24hr cm | rain mn cm | humidity % | barometer mb |
| 20260505004204 | 10 | 23 | 9.7 | 20.9 | 0.00 | 0.00 | 0.00 | 15 | 1016.5 |
| 20260505003702 | 10 | 83 | 4.8 | 22.5 | 0.00 | 0.00 | 0.00 | 15 | 1016.3 |
| 20260505003159 | 10 | 43 | 11.3 | 22.5 | 0.00 | 0.00 | 0.00 | 15 | 1016.2 |
| 20260505002655 | 10 | 47 | 8.0 | 17.7 | 0.00 | 0.00 | 0.00 | 15 | 1016.3 |
| 20260505002153 | 10 | 62 | 17.7 | 29.0 | 0.00 | 0.00 | 0.00 | 15 | 1016.1 |
| 20260505001650 | 10 | 80 | 17.7 | 25.7 | 0.00 | 0.00 | 0.00 | 15 | 1016.2 |
| 20260505001148 | 10 | 44 | 14.5 | 27.4 | 0.00 | 0.00 | 0.00 | 15 | 1016.2 |
| 20260505000644 | 11 | 26 | 1.6 | 17.7 | 0.00 | 0.00 | 0.00 | 15 | 1016.2 |
| 20260505000142 | 11 | 59 | 9.7 | 20.9 | 0.00 | 0.00 | 0.00 | 15 | 1016.2 |
| 20260504235638 | 11 | 68 | 8.0 | 12.9 | 0.00 | 0.00 | 0.00 | 15 | 1016.2 |
| 20260504235135 | 11 | 71 | 4.8 | 17.7 | 0.00 | 0.00 | 0.00 | 15 | 1016.0 |
| 20260504234632 | 11 | 55 | 4.8 | 14.5 | 0.00 | 0.00 | 0.00 | 15 | 1016.1 |
| 20260504234130 | 11 | 65 | 8.0 | 22.5 | 0.00 | 0.00 | 0.00 | 15 | 1016.0 |
| 20260504233625 | 12 | 70 | 6.4 | 20.9 | 0.00 | 0.00 | 0.00 | 15 | 1015.7 |
| 20260504233121 | 13 | 24 | 16.1 | 24.1 | 0.00 | 0.00 | 0.00 | 15 | 1015.5 |
| 20260504232619 | 13 | 0 | 4.8 | 19.3 | 0.00 | 0.00 | 0.00 | 15 | 1015.7 |
| 20260504232116 | 13 | 16 | 6.4 | 27.4 | 0.00 | 0.00 | 0.00 | 15 | 1015.5 |
| 20260504231613 | 13 | 42 | 12.9 | 20.9 | 0.00 | 0.00 | 0.00 | 15 | 1015.4 |
| 20260504231109 | 12 | 51 | 9.7 | 22.5 | 0.00 | 0.00 | 0.00 | 15 | 1015.4 |
| 20260504230605 | 12 | 90 | 4.8 | 16.1 | 0.00 | 0.00 | 0.00 | 15 | 1015.3 |
| 20260504230104 | 12 | 286 | 11.3 | 22.5 | 0.00 | 0.00 | 0.00 | 15 | 1015.3 |
| 20260504225601 | 12 | 1 | 11.3 | 20.9 | 0.00 | 0.00 | 0.00 | 15 | 1015.4 |
| 20260504225058 | 12 | 340 | 12.9 | 19.3 | 0.00 | 0.00 | 0.00 | 15 | 1015.0 |
| 20260504224554 | 12 | 27 | 11.3 | 14.5 | 0.00 | 0.00 | 0.00 | 15 | 1015.2 |
| 20260504224052 | 11 | 298 | 8.0 | 24.1 | 0.00 | 0.00 | 0.00 | 15 | 1014.9 |
| 20260504223549 | 12 | 44 | 12.9 | 27.4 | 0.00 | 0.00 | 0.00 | 15 | 1015.0 |
| 20260504223044 | 12 | 351 | 8.0 | 20.9 | 0.00 | 0.00 | 0.00 | 15 | 1015.3 |
| 20260504222541 | 14 | 47 | 8.0 | 32.2 | 0.00 | 0.00 | 0.00 | 15 | 1015.2 |
| 20260504222039 | 13 | 302 | 0.0 | 22.5 | 0.00 | 0.00 | 0.00 | 15 | 1015.2 |
| 20260504221536 | 13 | 56 | 14.5 | 29.0 | 0.00 | 0.00 | 0.00 | 15 | 1015.2 |
| 20260504221032 | 13 | 57 | 24.1 | 30.6 | 0.00 | 0.00 | 0.00 | 15 | 1015.0 |
| 20260504220529 | 13 | 43 | 11.3 | 22.5 | 0.00 | 0.00 | 0.00 | 15 | 1015.5 |
| 20260504220026 | 13 | 3 | 11.3 | 27.4 | 0.00 | 0.00 | 0.00 | 15 | 1015.4 |
| 20260504215522 | 13 | 340 | 16.1 | 30.6 | 0.00 | 0.00 | 0.00 | 15 | 1015.5 |
| 20260504215020 | 14 | 63 | 9.7 | 25.7 | 0.00 | 0.00 | 0.00 | 15 | 1015.2 |
| 20260504214516 | 14 | 346 | 11.3 | 20.9 | 0.00 | 0.00 | 0.00 | 15 | 1015.4 |
| 20260504214012 | 14 | 328 | 11.3 | 19.3 | 0.00 | 0.00 | 0.00 | 15 | 1015.3 |
| 20260504213509 | 13 | 0 | 0.0 | 20.9 | 0.00 | 0.00 | 0.00 | 15 | 1015.6 |
| 20260504213006 | 13 | 46 | 12.9 | 20.9 | 0.00 | 0.00 | 0.00 | 15 | 1015.4 |
| 20260504212502 | 13 | 26 | 8.0 | 20.9 | 0.00 | 0.00 | 0.00 | 15 | 1015.5 |
| 20260504211959 | 13 | 355 | 14.5 | 32.2 | 0.00 | 0.00 | 0.00 | 15 | 1015.5 |
| 20260504211456 | 13 | 75 | 6.4 | 27.4 | 0.00 | 0.00 | 0.00 | 15 | 1015.7 |
| 20260504210953 | 14 | 64 | 4.8 | 24.1 | 0.00 | 0.00 | 0.00 | 15 | 1015.6 |
| 20260504210450 | 13 | 68 | 12.9 | 30.6 | 0.00 | 0.00 | 0.00 | 15 | 1016.0 |
| 20260504205947 | 13 | 7 | 6.4 | 19.3 | 0.00 | 0.00 | 0.00 | 15 | 1015.6 |
| 20260504205444 | 13 | 351 | 14.5 | 30.6 | 0.00 | 0.00 | 0.00 | 15 | 1015.4 |
| 20260504204943 | 15 | 76 | 4.8 | 24.1 | 0.00 | 0.00 | 0.00 | 15 | 1015.9 |
| 20260504204440 | 13 | 273 | 6.4 | 17.7 | 0.00 | 0.00 | 0.00 | 15 | 1016.0 |
| 20260504203940 | 12 | 307 | 9.7 | 16.1 | 0.00 | 0.00 | 0.00 | 15 | 1015.6 |
| 20260504203437 | 13 | 273 | 4.8 | 19.3 | 0.00 | 0.00 | 0.00 | 15 | 1015.9 |
| 20260504202933 | 12 | 283 | 8.0 | 19.3 | 0.00 | 0.00 | 0.00 | 15 | 1016.2 |
| 20260504202429 | 13 | 305 | 9.7 | 24.1 | 0.00 | 0.00 | 0.00 | 15 | 1016.1 |
| 20260504201926 | 13 | 25 | 9.7 | 19.3 | 0.00 | 0.00 | 0.00 | 15 | 1016.1 |
| 20260504201424 | 14 | 31 | 24.1 | 25.7 | 0.00 | 0.00 | 0.00 | 15 | 1016.0 |
| 20260504200921 | 13 | 36 | 16.1 | 29.0 | 0.00 | 0.00 | 0.00 | 15 | 1016.3 |
| 20260504200418 | 14 | 46 | 16.1 | 27.4 | 0.00 | 0.00 | 0.00 | 15 | 1016.2 |
| 20260504195914 | 13 | 304 | 9.7 | 20.9 | 0.00 | 0.00 | 0.00 | 15 | 1016.2 |
| 20260504195410 | 13 | 342 | 8.0 | 24.1 | 0.00 | 0.00 | 0.00 | 15 | 1016.2 |
| 20260504194907 | 13 | 353 | 14.5 | 27.4 | 0.00 | 0.00 | 0.00 | 15 | 1016.2 |
| 20260504194403 | 13 | 62 | 6.4 | 14.5 | 0.00 | 0.00 | 0.00 | 15 | 1016.3 |
| 20260504193859 | 13 | 87 | 11.3 | 22.5 | 0.00 | 0.00 | 0.00 | 15 | 1016.3 |
| 20260504193356 | 13 | 59 | 3.2 | 19.3 | 0.00 | 0.00 | 0.00 | 15 | 1016.3 |
| 20260504192855 | 11 | 348 | 20.9 | 35.4 | 0.00 | 0.00 | 0.00 | 15 | 1016.1 |
| 20260504192352 | 13 | 12 | 11.3 | 17.7 | 0.00 | 0.00 | 0.00 | 15 | 1016.6 |
| 20260504191850 | 12 | 50 | 6.4 | 14.5 | 0.00 | 0.00 | 0.00 | 15 | 1016.7 |
| 20260504191348 | 12 | 47 | 9.7 | 25.7 | 0.00 | 0.00 | 0.00 | 15 | 1016.6 |
| 20260504190843 | 12 | 26 | 1.6 | 16.1 | 0.00 | 0.00 | 0.00 | 15 | 1016.5 |
| 20260504190339 | 13 | 0 | 0.0 | 14.5 | 0.00 | 0.00 | 0.00 | 15 | 1016.5 |
| 20260504185836 | 12 | 346 | 30.6 | 30.6 | 0.00 | 0.00 | 0.00 | 15 | 1016.7 |
| 20260504185333 | 12 | 111 | 4.8 | 27.4 | 0.00 | 0.00 | 0.00 | 15 | 1016.6 |
| 20260504184829 | 12 | 54 | 12.9 | 20.9 | 0.00 | 0.00 | 0.00 | 15 | 1016.5 |
| 20260504184325 | 13 | 240 | 1.6 | 9.7 | 0.00 | 0.00 | 0.00 | 15 | 1017.0 |
| 20260504183821 | 12 | 341 | 11.3 | 16.1 | 0.00 | 0.00 | 0.00 | 15 | 1016.9 |
| 20260504183319 | 12 | 67 | 11.3 | 20.9 | 0.00 | 0.00 | 0.00 | 15 | 1017.0 |
| 20260504182817 | 12 | 278 | 8.0 | 24.1 | 0.00 | 0.00 | 0.00 | 15 | 1017.0 |
| 20260504182314 | 12 | 312 | 22.5 | 25.7 | 0.00 | 0.00 | 0.00 | 15 | 1017.0 |
| 20260504181810 | 13 | 2 | 9.7 | 16.1 | 0.00 | 0.00 | 0.00 | 15 | 1017.2 |
| 20260504181308 | 12 | 103 | 11.3 | 11.3 | 0.00 | 0.00 | 0.00 | 15 | 1017.4 |
| 20260504180807 | 12 | 45 | 8.0 | 20.9 | 0.00 | 0.00 | 0.00 | 15 | 1017.2 |
| 20260504180305 | 12 | 328 | 8.0 | 24.1 | 0.00 | 0.00 | 0.00 | 15 | 1017.5 |
| 20260504175802 | 11 | 315 | 9.7 | 9.7 | 0.00 | 0.00 | 0.00 | 15 | 1017.4 |
| 20260504175259 | 11 | 348 | 16.1 | 20.9 | 0.00 | 0.00 | 0.00 | 15 | 1017.7 |
| 20260504174757 | 12 | 310 | 19.3 | 22.5 | 0.00 | 0.00 | 0.00 | 15 | 1017.4 |
| 20260504174255 | 11 | 317 | 8.0 | 22.5 | 0.00 | 0.00 | 0.00 | 15 | 1017.6 |
| 20260504173751 | 12 | 19 | 16.1 | 19.3 | 0.00 | 0.00 | 0.00 | 15 | 1017.7 |
| 20260504173248 | 10 | 336 | 6.4 | 30.6 | 0.00 | 0.00 | 0.00 | 15 | 1017.6 |
| 20260504172745 | 12 | 47 | 9.7 | 19.3 | 0.00 | 0.00 | 0.00 | 15 | 1017.6 |
| 20260504172241 | 12 | 338 | 11.3 | 14.5 | 0.00 | 0.00 | 0.00 | 15 | 1017.7 |
| 20260504171737 | 11 | 41 | 11.3 | 17.7 | 0.00 | 0.00 | 0.00 | 15 | 1018.0 |
| 20260504171235 | 11 | 25 | 8.0 | 11.3 | 0.00 | 0.00 | 0.00 | 15 | 1017.9 |
| 20260504170732 | 11 | 65 | 3.2 | 19.3 | 0.00 | 0.00 | 0.00 | 15 | 1017.9 |
| 20260504170229 | 11 | 68 | 4.8 | 17.7 | 0.00 | 0.00 | 0.00 | 15 | 1017.9 |
| 20260504160147 | 11 | 237 | 8.0 | 29.0 | 0.00 | 0.00 | 0.00 | 15 | 1017.7 |
| 20260504151115 | 10 | 338 | 20.9 | 38.6 | 0.00 | 0.00 | 0.00 | 15 | 1016.5 |
| 20260504150612 | 10 | 335 | 22.5 | 38.6 | 0.00 | 0.00 | 0.00 | 15 | 1016.2 |
| 20260504150109 | 11 | 348 | 6.4 | 27.4 | 0.00 | 0.00 | 0.00 | 15 | 1016.2 |
| 20260504141038 | 10 | 342 | 20.9 | 37.0 | 0.00 | 0.00 | 0.00 | 15 | 1015.3 |
| 20260504140534 | 10 | 313 | 20.9 | 32.2 | 0.00 | 0.00 | 0.00 | 15 | 1015.4 |
| 20260504130459 | 10 | 295 | 27.4 | 33.8 | 0.00 | 0.00 | 0.00 | 15 | 1013.6 |
| 20260504110346 | 7 | 244 | 8.0 | 12.9 | 0.00 | 0.00 | 0.00 | 15 | 1013.2 |
| 20260504100303 | 7 | 325 | 4.8 | 8.0 | 0.00 | 0.00 | 0.00 | 15 | 1013.4 |
| 20260504081657 | 8 | 238 | 19.3 | 24.1 | 0.00 | 0.00 | 0.00 | 15 | 1013.6 |
| 20260504081153 | 8 | 224 | 16.1 | 20.9 | 0.00 | 0.00 | 0.00 | 15 | 1013.6 |
| 20260504080649 | 8 | 236 | 12.9 | 22.5 | 0.00 | 0.00 | 0.00 | 15 | 1013.9 |
| 20260504080146 | 8 | 228 | 17.7 | 24.1 | 0.00 | 0.00 | 0.00 | 15 | 1013.9 |
| 20260504070114 | 8 | 242 | 24.1 | 24.1 | 0.00 | 0.00 | 0.00 | 15 | 1014.2 |
| 20260504050502 | 9 | 245 | 11.3 | 17.7 | 0.00 | 0.00 | 0.00 | 15 | 1015.0 |
| 20260504045959 | 10 | 254 | 14.5 | 20.9 | 0.00 | 0.00 | 0.00 | 15 | 1015.4 |
| 20260504045455 | 10 | 238 | 17.7 | 22.5 | 0.00 | 0.00 | 0.00 | 15 | 1015.2 |
| 20260504044951 | 10 | 249 | 9.7 | 22.5 | 0.00 | 0.00 | 0.00 | 15 | 1015.5 |
| 20260504044449 | 10 | 251 | 14.5 | 20.9 | 0.00 | 0.00 | 0.00 | 15 | 1015.4 |
| 20260504043946 | 10 | 247 | 16.1 | 22.5 | 0.00 | 0.00 | 0.00 | 15 | 1015.5 |
| 20260504043443 | 10 | 266 | 11.3 | 22.5 | 0.00 | 0.00 | 0.00 | 15 | 1015.4 |
| 20260504042941 | 10 | 247 | 16.1 | 16.1 | 0.00 | 0.00 | 0.00 | 15 | 1015.5 |
| 20260504042437 | 10 | 262 | 8.0 | 12.9 | 0.00 | 0.00 | 0.00 | 15 | 1015.7 |
| 20260504041934 | 10 | 283 | 9.7 | 16.1 | 0.00 | 0.00 | 0.00 | 15 | 1015.7 |
| 20260504041430 | 10 | 247 | 14.5 | 17.7 | 0.00 | 0.00 | 0.00 | 15 | 1015.9 |
| 20260504040926 | 11 | 257 | 17.7 | 19.3 | 0.00 | 0.00 | 0.00 | 15 | 1015.7 |
| 20260504040424 | 11 | 248 | 14.5 | 19.3 | 0.00 | 0.00 | 0.00 | 15 | 1015.9 |
| 20260504035919 | 11 | 247 | 14.5 | 20.9 | 0.00 | 0.00 | 0.00 | 15 | 1015.7 |
| 20260504035417 | 11 | 244 | 12.9 | 17.7 | 0.00 | 0.00 | 0.00 | 15 | 1015.9 |
| 20260504034914 | 11 | 241 | 14.5 | 16.1 | 0.00 | 0.00 | 0.00 | 15 | 1015.9 |
| 20260504034412 | 11 | 245 | 11.3 | 12.9 | 0.00 | 0.00 | 0.00 | 15 | 1016.0 |
| 20260504033908 | 11 | 250 | 16.1 | 17.7 | 0.00 | 0.00 | 0.00 | 15 | 1015.6 |
| 20260504033406 | 11 | 257 | 11.3 | 16.1 | 0.00 | 0.00 | 0.00 | 15 | 1015.7 |
| 20260504032903 | 11 | 259 | 9.7 | 12.9 | 0.00 | 0.00 | 0.00 | 15 | 1015.6 |
| 20260504032400 | 12 | 270 | 8.0 | 12.9 | 0.00 | 0.00 | 0.00 | 15 | 1015.9 |
| 20260504031856 | 11 | 244 | 11.3 | 12.9 | 0.00 | 0.00 | 0.00 | 15 | 1015.9 |
| 20260504031353 | 12 | 270 | 8.0 | 11.3 | 0.00 | 0.00 | 0.00 | 15 | 1016.0 |
| 20260504030849 | 11 | 259 | 8.0 | 11.3 | 0.00 | 0.00 | 0.00 | 15 | 1015.9 |
| 20260504030347 | 12 | 270 | 8.0 | 12.9 | 0.00 | 0.00 | 0.00 | 15 | 1015.5 |
| 20260504025843 | 11 | 263 | 8.0 | 11.3 | 0.00 | 0.00 | 0.00 | 15 | 1015.7 |
| 20260504025340 | 12 | 278 | 8.0 | 9.7 | 0.00 | 0.00 | 0.00 | 15 | 1015.9 |
| 20260504024837 | 11 | 266 | 8.0 | 8.0 | 0.00 | 0.00 | 0.00 | 15 | 1015.9 |
| 20260504024333 | 11 | 261 | 6.4 | 11.3 | 0.00 | 0.00 | 0.00 | 15 | 1015.5 |
| 20260504023830 | 12 | 275 | 6.4 | 11.3 | 0.00 | 0.00 | 0.00 | 15 | 1015.6 |
| 20260504023327 | 11 | 281 | 6.4 | 9.7 | 0.00 | 0.00 | 0.00 | 15 | 1015.6 |
| 20260504022822 | 11 | 275 | 4.8 | 9.7 | 0.00 | 0.00 | 0.00 | 15 | 1015.9 |
| 20260504022320 | 11 | 260 | 6.4 | 9.7 | 0.00 | 0.00 | 0.00 | 15 | 1015.9 |
| 20260504021816 | 12 | 261 | 4.8 | 9.7 | 0.00 | 0.00 | 0.00 | 15 | 1015.6 |
| 20260504021314 | 12 | 265 | 6.4 | 8.0 | 0.00 | 0.00 | 0.00 | 15 | 1015.7 |
| 20260504020811 | 11 | 286 | 4.8 | 4.8 | 0.00 | 0.00 | 0.00 | 15 | 1015.6 |
| 20260504020307 | 11 | 270 | 1.6 | 4.8 | 0.00 | 0.00 | 0.00 | 15 | 1015.6 |
| 20260504015803 | 12 | 270 | 3.2 | 4.8 | 0.00 | 0.00 | 0.00 | 15 | 1015.5 |
| 20260504015300 | 13 | 265 | 0.0 | 3.2 | 0.00 | 0.00 | 0.00 | 15 | 1015.4 |
| 20260504014755 | 13 | 234 | 1.6 | 4.8 | 0.00 | 0.00 | 0.00 | 15 | 1015.7 |
| 20260504014252 | 15 | 229 | 3.2 | 4.8 | 0.00 | 0.00 | 0.00 | 15 | 1015.4 |
| 20260504013750 | 16 | 274 | 4.8 | 4.8 | 0.00 | 0.00 | 0.00 | 15 | 1015.6 |
| 20260504013247 | 17 | 291 | 1.6 | 3.2 | 0.00 | 0.00 | 0.00 | 15 | 1015.9 |
| 20260504012743 | 17 | 254 | 3.2 | 3.2 | 0.00 | 0.00 | 0.00 | 15 | 1015.9 |
| 20260504012242 | 17 | 252 | 3.2 | 4.8 | 0.00 | 0.00 | 0.00 | 15 | 1015.9 |
| 20260504011738 | 18 | 255 | 3.2 | 3.2 | 0.00 | 0.00 | 0.00 | 15 | 1015.4 |
| 20260504011235 | 18 | 254 | 0.0 | 0.0 | 0.00 | 0.00 | 0.00 | 15 | 1015.9 |
| 20260504010731 | 17 | 300 | 1.6 | 4.8 | 0.00 | 0.00 | 0.00 | 15 | 1015.9 |
| 20260504010227 | 17 | 315 | 8.0 | 8.0 | 0.00 | 0.00 | 0.00 | 15 | 1016.1 |
| 20260504005724 | 17 | 317 | 6.4 | 6.4 | 0.00 | 0.00 | 0.00 | 15 | 1016.1 |
| 20260504005221 | 17 | 341 | 0.0 | 8.0 | 0.00 | 0.00 | 0.00 | 15 | 1016.0 |
| 20260504004718 | 18 | 23 | 1.6 | 4.8 | 0.00 | 0.00 | 0.00 | 15 | 1016.0 |